메인 페이지
METAR-TAF:

METAR-TAF

공항 :

애틀랜타, 조지아, 미국

위도: 33-54-43N, 경도: 084-56-26W, 고도: 393m

현재 날씨관측

예보는 21분 전, 19:35시(UTC)에 발표되었습니다.
4kt
온도 32°C
습도 41%
기압 1017 hPa
고도 5000ft 상공 구름 보통

METAR: KPUJ 171935Z AUTO 26004KT SCT050 32/17 A3004 RMK AO2 PWINO

시각: 15:56 (19:56 UTC)


TAF: 누락

4,000개 이상의 공항 관측 자료 및 예보 (METAR 및 TAF 보고).

지도상에서 검색 가능한 기상관측소가 노란 점과 빨간 점으로 표시되어 있습니다.

기상관측소 명을 보려면 표시 위로 마우스를 이동하세요.

날씨 관측과 예보를 보려면 클릭하세요.

지도 변경 : 확대하려면 엑스 표시가 있는 녹색 버튼, 축소하려면 빼기 표시가 있는 녹색 버튼, 다음 페이지의 지도를 보려면 녹색 화살표를 클릭하세요.


METAR-TAF: